Terminal Aerodrome Forecast
Issued by NWS Sioux Falls, SD

Home | Current Version | Previous Version | Graphics & Text | Print | Product List | Glossary Off
Versions: 1 2 3 4 5 6 7 8 9 10 11 12 13 14 15 16 17 18 19 20 21 22 23 24 25 26 27 28 29 30 31 32 33 34 35 36 37 38 39 40 41 42 43 44 45

000
FTUS43 KFSD 032112 AAD
TAFSUX
TAF AMD
KSUX 032112Z 0321/0418 17011KT 3SM -SN SCT008 OVC015
      TEMPO 0321/0323 1 1/2SM -SN BKN008
     FM032300 16011KT 3SM -SN OVC007
     FM040100 15009KT P6SM OVC007
     FM041100 20007KT P6SM BKN050
     FM041400 24007KT P6SM SCT090=

USA.gov is the U.S. government's official web portal to all federal, state and local government web resources and services.